Time;durP1;ratioP1;P1;durP2;ratioP2;P2;SDS_P1;SDS_P2;PMS_P1;PMS_P2;Temp;Humidity;BMP_temperature;BMP_pressure;BME280_temperature;BME280_humidity;BME280_pressure;Samples;Min_cycle;Max_cycle;Signal;HPM_P1;HPM_P2
2021/01/13 00:02:19;;;;;;;;;;;;;;;20.73;39.09;99863.00;5038210;28;847;-56
2021/01/13 00:04:44;;;;;;;;;;;;;;;20.16;40.02;99866.59;5037935;28;768;-57
2021/01/13 00:07:10;;;;;;;;;;;;;;;20.25;39.88;99869.41;5037289;28;1007;-56
2021/01/13 00:09:35;;;;;;;;;;;;;;;19.70;40.99;99888.00;5020151;28;1311;-57
2021/01/13 00:12:01;;;;;;;;;;;;;;;19.12;42.56;99868.47;5037682;28;740;-55
2021/01/13 00:14:26;;;;;;;;;;;;;;;19.83;40.95;99855.94;5037300;28;779;-52
2021/01/13 00:16:52;;;;;;;;;;;;;;;20.50;39.29;99848.50;5038810;28;1100;-53
2021/01/13 00:19:17;;;;;;;;;;;;;;;20.19;39.97;99852.19;5057457;28;1979;-56
2021/01/13 00:21:52;;;;;;;;;;;;;;;20.12;40.05;99847.13;5055482;28;947;-50
2021/01/13 00:24:18;;;;;;;;;;;;;;;19.65;41.27;99844.00;5037356;28;1037;-52
2021/01/13 00:26:43;;;;;;;;;;;;;;;19.45;41.53;99842.59;5037458;28;824;-50
2021/01/13 00:29:10;;;;;;;;;;;;;;;20.01;40.38;99845.78;5037217;28;768;-55
2021/01/13 00:31:35;;;;;;;;;;;;;;;20.70;39.11;99854.56;5037660;28;756;-53
2021/01/13 00:34:00;;;;;;;;;;;;;;;20.13;40.23;99856.22;5037375;28;788;-53
2021/01/13 00:36:27;;;;;;;;;;;;;;;20.03;40.38;99851.78;5036631;28;748;-52
2021/01/13 00:38:52;;;;;;;;;;;;;;;19.63;41.26;99874.66;5037255;28;1988;-53
2021/01/13 00:41:17;;;;;;;;;;;;;;;19.23;42.04;99873.75;5037186;28;828;-49
2021/01/13 00:43:43;;;;;;;;;;;;;;;20.42;39.55;99879.69;5036767;28;836;-51
2021/01/13 00:46:09;;;;;;;;;;;;;;;20.41;39.39;99889.09;5037507;28;804;-54
2021/01/13 00:48:34;;;;;;;;;;;;;;;20.23;39.66;99889.06;5037438;28;840;-54
2021/01/13 00:51:00;;;;;;;;;;;;;;;19.76;40.52;99896.94;5036931;28;810;-57
2021/01/13 00:53:25;;;;;;;;;;;;;;;19.26;41.70;99900.69;5036824;28;1014;-55
2021/01/13 00:55:50;;;;;;;;;;;;;;;20.00;40.52;99897.38;5036943;28;768;-54
2021/01/13 00:58:16;;;;;;;;;;;;;;;20.66;39.04;99896.63;5036547;28;757;-53
2021/01/13 01:00:41;;;;;;;;;;;;;;;20.21;39.82;99885.00;5036957;28;1975;-57
2021/01/13 01:03:07;;;;;;;;;;;;;;;20.05;40.11;99890.09;5036776;28;800;-56
2021/01/13 01:05:32;;;;;;;;;;;;;;;19.65;40.94;99910.19;5036488;28;745;-52
2021/01/13 01:07:58;;;;;;;;;;;;;;;19.18;42.03;99895.91;5036698;28;948;-56
2021/01/13 01:10:27;;;;;;;;;;;;;;;20.16;40.04;99878.47;5037266;28;798;-55
2021/01/13 01:12:53;;;;;;;;;;;;;;;20.82;38.40;99871.31;5036637;28;749;-56
2021/01/13 01:15:18;;;;;;;;;;;;;;;20.20;39.89;99859.31;5036898;28;740;-54
2021/01/13 01:17:43;;;;;;;;;;;;;;;20.06;40.00;99861.38;5044897;28;1104;-53
2021/01/13 01:20:09;;;;;;;;;;;;;;;19.50;41.13;99856.22;5056531;28;1905;-51
2021/01/13 01:22:35;;;;;;;;;;;;;;;19.74;40.90;99855.88;5047372;28;1215;-54
2021/01/13 01:25:00;;;;;;;;;;;;;;;20.52;39.21;99840.69;5036637;28;839;-55
2021/01/13 01:27:25;;;;;;;;;;;;;;;20.78;38.23;99843.53;5036692;28;749;-52
2021/01/13 01:29:51;;;;;;;;;;;;;;;20.36;39.45;99851.41;5036217;28;797;-51
2021/01/13 01:32:16;;;;;;;;;;;;;;;20.10;39.80;99846.63;5036448;28;820;-53
2021/01/13 01:34:42;;;;;;;;;;;;;;;19.56;40.95;99851.38;5036479;28;844;-55
2021/01/13 01:37:07;;;;;;;;;;;;;;;19.01;42.43;99849.75;5036129;28;963;-52
2021/01/13 01:39:32;;;;;;;;;;;;;;;20.05;40.17;99849.53;5036414;28;1960;-54
2021/01/13 01:41:58;;;;;;;;;;;;;;;20.76;38.63;99833.94;5036321;28;748;-54
2021/01/13 01:44:23;;;;;;;;;;;;;;;20.35;39.41;99835.97;5036318;28;921;-57
2021/01/13 01:46:49;;;;;;;;;;;;;;;20.27;39.29;99828.47;5036441;28;744;-57
2021/01/13 01:49:14;;;;;;;;;;;;;;;19.86;40.25;99830.47;5022192;28;756;-57
2021/01/13 01:51:58;;;;;;;;;;;;;;;19.39;41.34;99825.38;5039809;28;951;-56
2021/01/13 01:54:26;;;;;;;;;;;;;;;19.87;40.33;99823.03;5022703;28;791;-55
2021/01/13 01:56:53;;;;;;;;;;;;;;;20.70;38.75;99822.22;5040339;28;800;-55
2021/01/13 01:59:19;;;;;;;;;;;;;;;20.36;39.14;99821.03;5039825;28;1902;-53
2021/01/13 02:01:45;;;;;;;;;;;;;;;20.24;39.27;99815.31;5040170;28;500;-54
2021/01/13 02:04:13;;;;;;;;;;;;;;;19.78;40.25;99814.66;5040137;28;885;-53
2021/01/13 02:06:51;;;;;;;;;;;;;;;19.31;41.50;99823.38;5039561;28;971;-54
2021/01/13 02:09:17;;;;;;;;;;;;;;;20.37;39.30;99805.28;5040081;28;752;-58
2021/01/13 02:11:44;;;;;;;;;;;;;;;20.77;38.48;99814.25;5040191;28;820;-58
2021/01/13 02:14:11;;;;;;;;;;;;;;;20.42;39.09;99819.75;5022252;28;728;-58
2021/01/13 02:16:37;;;;;;;;;;;;;;;20.17;39.48;99811.09;5040146;28;783;-59
2021/01/13 02:19:02;;;;;;;;;;;;;;;19.44;41.00;99818.91;5058888;28;1905;-56
2021/01/13 02:21:31;;;;;;;;;;;;;;;19.71;40.78;99826.16;5042108;28;788;-56
2021/01/13 02:24:08;;;;;;;;;;;;;;;20.60;39.01;99814.25;5039672;28;998;-57
2021/01/13 02:26:52;;;;;;;;;;;;;;;20.25;39.54;99826.03;5039751;28;787;-57
2021/01/13 02:29:25;;;;;;;;;;;;;;;20.43;39.15;99848.97;5039464;28;756;-58
2021/01/13 02:32:08;;;;;;;;;;;;;;;19.45;40.98;99843.41;5021947;28;824;-58
2021/01/13 02:34:34;;;;;;;;;;;;;;;19.09;42.00;99846.25;5039214;28;804;-54
2021/01/13 02:37:18;;;;;;;;;;;;;;;19.59;40.99;99839.75;5039674;28;1347;-54
2021/01/13 02:39:44;;;;;;;;;;;;;;;20.57;38.82;99848.03;5039717;28;1914;-54
2021/01/13 02:42:11;;;;;;;;;;;;;;;20.51;38.83;99859.22;5038926;28;803;-54
2021/01/13 02:44:36;;;;;;;;;;;;;;;20.23;39.56;99855.94;5039778;28;779;-53
2021/01/13 02:47:05;;;;;;;;;;;;;;;19.95;39.89;99855.34;5021822;28;510;-54
2021/01/13 02:49:31;;;;;;;;;;;;;;;19.43;41.05;99856.69;5039018;28;760;-53
2021/01/13 02:51:57;;;;;;;;;;;;;;;19.73;40.53;99859.78;5021489;28;1003;-54
2021/01/13 02:54:32;;;;;;;;;;;;;;;20.51;38.85;99858.44;5039252;28;816;-52
2021/01/13 02:57:13;;;;;;;;;;;;;;;20.47;38.89;99866.53;5038857;28;816;-56
2021/01/13 02:59:38;;;;;;;;;;;;;;;20.13;39.53;99857.03;5039091;28;1971;-54
2021/01/13 03:02:07;;;;;;;;;;;;;;;19.73;40.38;99857.00;5039629;28;881;-53
2021/01/13 03:04:32;;;;;;;;;;;;;;;19.27;41.31;99863.72;5038620;28;768;-53
2021/01/13 03:06:58;;;;;;;;;;;;;;;19.84;40.50;99860.34;5039115;28;975;-53
2021/01/13 03:09:23;;;;;;;;;;;;;;;20.58;38.69;99847.72;5039485;28;748;-51
2021/01/13 03:11:49;;;;;;;;;;;;;;;20.32;38.97;99845.72;5038470;28;741;-54
2021/01/13 03:14:18;;;;;;;;;;;;;;;20.01;39.87;99848.56;5038880;28;792;-54
2021/01/13 03:16:44;;;;;;;;;;;;;;;19.71;40.53;99847.41;5038810;28;1124;-53
2021/01/13 03:19:17;;;;;;;;;;;;;;;19.34;41.32;99858.56;5040212;28;1910;-55
2021/01/13 03:22:02;;;;;;;;;;;;;;;19.74;40.54;99850.38;5057003;28;1085;-53
2021/01/13 03:24:31;;;;;;;;;;;;;;;20.68;38.48;99855.72;5038325;28;1504;-54
2021/01/13 03:26:57;;;;;;;;;;;;;;;20.30;39.05;99858.19;5038279;28;732;-53
2021/01/13 03:29:22;;;;;;;;;;;;;;;20.25;39.12;99856.41;5020956;28;1306;-52
2021/01/13 03:31:55;;;;;;;;;;;;;;;19.71;40.27;99858.44;5038446;28;740;-52
2021/01/13 03:34:27;;;;;;;;;;;;;;;19.52;40.81;99853.16;5020614;28;868;-51
2021/01/13 03:37:08;;;;;;;;;;;;;;;20.46;38.91;99861.34;5020664;28;971;-54
2021/01/13 03:39:34;;;;;;;;;;;;;;;20.24;39.34;99856.72;5038370;28;1961;-56
2021/01/13 03:42:11;;;;;;;;;;;;;;;20.05;39.81;99866.09;5037860;28;744;-54
2021/01/13 03:44:38;;;;;;;;;;;;;;;19.56;40.62;99866.00;5038375;28;839;-54
2021/01/13 03:47:15;;;;;;;;;;;;;;;19.13;41.66;99861.84;5039060;28;744;-50
2021/01/13 03:49:47;;;;;;;;;;;;;;;20.31;39.23;99870.88;5038417;28;735;-54
2021/01/13 03:52:13;;;;;;;;;;;;;;;20.43;38.79;99875.78;5037877;28;1011;-52
2021/01/13 03:54:38;;;;;;;;;;;;;;;20.29;39.12;99875.91;5020676;28;792;-58
2021/01/13 03:57:04;;;;;;;;;;;;;;;19.88;39.80;99866.03;5038024;28;767;-58
2021/01/13 03:59:48;;;;;;;;;;;;;;;19.25;41.51;99872.31;5037768;28;1902;-59
2021/01/13 04:02:17;;;;;;;;;;;;;;;20.16;39.48;99886.75;5037892;28;854;-58
2021/01/13 04:04:46;;;;;;;;;;;;;;;20.72;38.16;99871.63;5037447;28;863;-64
2021/01/13 04:07:12;;;;;;;;;;;;;;;20.24;39.15;99884.34;5037592;28;1154;-58
2021/01/13 04:09:37;;;;;;;;;;;;;;;20.14;39.26;99886.25;5037755;28;820;-59
2021/01/13 04:12:07;;;;;;;;;;;;;;;19.46;40.52;99888.31;5036659;28;790;-55
2021/01/13 04:14:43;;;;;;;;;;;;;;;19.28;41.20;99884.66;5037606;28;824;-59
2021/01/13 04:17:09;;;;;;;;;;;;;;;20.08;39.61;99889.50;5041006;28;1100;-57
2021/01/13 04:19:34;;;;;;;;;;;;;;;20.82;37.98;99890.66;5039115;28;1961;-59
2021/01/13 04:22:02;;;;;;;;;;;;;;;20.26;38.86;99895.84;5053432;28;929;-61
2021/01/13 04:24:27;;;;;;;;;;;;;;;20.24;38.95;99898.94;5037474;28;1037;-59
2021/01/13 04:26:53;;;;;;;;;;;;;;;19.77;39.82;99893.88;5036883;28;787;-59
2021/01/13 04:29:18;;;;;;;;;;;;;;;19.34;40.94;99902.69;5037436;28;823;-56
2021/01/13 04:31:44;;;;;;;;;;;;;;;20.32;38.76;99895.41;5037338;28;815;-59
2021/01/13 04:34:10;;;;;;;;;;;;;;;20.60;38.00;99894.34;5036742;28;815;-53
2021/01/13 04:36:35;;;;;;;;;;;;;;;20.29;38.54;99898.00;5037183;28;955;-53
2021/01/13 04:39:00;;;;;;;;;;;;;;;20.11;38.88;99895.16;5037063;28;1972;-54
2021/01/13 04:41:28;;;;;;;;;;;;;;;19.53;40.09;99904.41;5018887;28;789;-55
2021/01/13 04:43:53;;;;;;;;;;;;;;;19.85;39.73;99911.59;5037125;28;841;-57
2021/01/13 04:46:38;;;;;;;;;;;;;;;20.66;38.09;99909.63;5037053;28;772;-54
2021/01/13 04:49:15;;;;;;;;;;;;;;;20.52;37.84;99902.28;5036867;28;729;-54
2021/01/13 04:51:42;;;;;;;;;;;;;;;20.30;38.14;99902.38;5019160;28;998;-54
2021/01/13 04:54:08;;;;;;;;;;;;;;;19.82;39.13;99907.56;5036767;28;840;-55
2021/01/13 04:56:51;;;;;;;;;;;;;;;19.51;39.99;99901.19;5036620;28;776;-58
2021/01/13 04:59:24;;;;;;;;;;;;;;;20.57;37.55;99898.56;5035561;28;1972;-54
2021/01/13 05:01:56;;;;;;;;;;;;;;;20.24;38.13;99892.63;5036625;28;761;-60
2021/01/13 05:04:24;;;;;;;;;;;;;;;20.22;38.15;99892.94;5036363;28;843;-47
2021/01/13 05:07:06;;;;;;;;;;;;;;;19.74;38.92;99897.25;5036551;28;1015;-54
2021/01/13 05:09:34;;;;;;;;;;;;;;;19.19;40.06;99890.09;5019415;28;1105;-45
2021/01/13 05:11:59;;;;;;;;;;;;;;;19.31;39.93;99892.28;5036051;28;761;-46
2021/01/13 05:14:24;;;;;;;;;;;;;;;20.30;37.55;99883.03;5018391;28;791;-45
2021/01/13 05:16:50;;;;;;;;;;;;;;;20.29;37.81;99882.25;5018998;28;1132;-60
2021/01/13 05:19:36;;;;;;;;;;;;;;;20.09;38.17;99878.13;5055605;28;1983;-58
2021/01/13 05:22:01;;;;;;;;;;;;;;;19.61;38.94;99887.91;5044540;28;1662;-57
2021/01/13 05:24:27;;;;;;;;;;;;;;;18.87;40.98;99893.84;5018513;28;1136;-56
2021/01/13 05:27:00;;;;;;;;;;;;;;;20.06;38.31;99888.97;5035976;28;752;-57
2021/01/13 05:29:32;;;;;;;;;;;;;;;20.63;37.35;99888.16;5018448;28;812;-58
2021/01/13 05:32:01;;;;;;;;;;;;;;;20.23;37.84;99885.47;5035815;28;799;-58
2021/01/13 05:34:30;;;;;;;;;;;;;;;20.03;38.44;99884.91;5049612;28;844;-48
2021/01/13 05:37:18;;;;;;;;;;;;;;;19.27;40.13;99886.56;5052411;28;837;-48
2021/01/13 05:39:49;;;;;;;;;;;;;;;19.93;38.88;99891.53;5027577;28;1933;-46
2021/01/13 05:42:17;;;;;;;;;;;;;;;20.80;36.86;99890.16;5036089;28;779;-45
2021/01/13 05:44:43;;;;;;;;;;;;;;;21.31;35.79;99887.72;5035877;28;839;-47
2021/01/13 05:47:14;;;;;;;;;;;;;;;20.88;36.69;99894.09;5035675;28;744;-49
2021/01/13 05:49:39;;;;;;;;;;;;;;;20.56;37.51;99896.91;5030133;28;820;-50
2021/01/13 05:52:08;;;;;;;;;;;;;;;20.11;38.50;99903.44;5037655;28;1010;-46
2021/01/13 05:54:36;;;;;;;;;;;;;;;19.47;39.90;99901.81;5055202;28;860;-44
2021/01/13 05:57:02;;;;;;;;;;;;;;;19.60;39.64;99904.78;5055770;28;740;-48
2021/01/13 05:59:28;;;;;;;;;;;;;;;20.68;37.53;99907.38;5055813;28;1905;-53
2021/01/13 06:01:57;;;;;;;;;;;;;;;20.45;37.60;99907.44;5055227;28;836;-54
2021/01/13 06:04:23;;;;;;;;;;;;;;;20.26;38.22;99906.91;5055315;28;962;-57
2021/01/13 06:06:58;;;;;;;;;;;;;;;19.76;39.13;99919.81;5052995;28;938;-52
2021/01/13 06:09:23;;;;;;;;;;;;;;;19.30;40.25;99916.25;5035620;28;776;-58
2021/01/13 06:11:52;;;;;;;;;;;;;;;20.33;38.03;99918.31;5035313;28;800;-54
2021/01/13 06:14:21;;;;;;;;;;;;;;;21.03;36.47;99924.00;5035799;28;847;-57
2021/01/13 06:16:48;;;;;;;;;;;;;;;20.44;37.81;99921.56;5017506;28;1092;-56
2021/01/13 06:19:13;;;;;;;;;;;;;;;20.42;37.79;99929.38;5055443;28;1910;-57
2021/01/13 06:21:39;;;;;;;;;;;;;;;19.79;38.95;99934.91;5053963;28;1002;-51
2021/01/13 06:24:11;;;;;;;;;;;;;;;20.13;38.46;99942.59;5035349;28;1166;-48
2021/01/13 06:26:37;;;;;;;;;;;;;;;20.96;36.82;99938.28;5035593;28;835;-47
2021/01/13 06:29:21;;;;;;;;;;;;;;;20.49;37.79;99936.06;5018156;28;1131;-50
2021/01/13 06:31:47;;;;;;;;;;;;;;;20.33;37.79;99937.66;5035218;28;795;-51
2021/01/13 06:34:28;;;;;;;;;;;;;;;19.72;39.39;99943.63;5036398;28;760;-53
2021/01/13 06:36:53;;;;;;;;;;;;;;;19.25;40.33;99948.66;5039197;28;959;-56
2021/01/13 06:39:19;;;;;;;;;;;;;;;20.28;38.11;99946.06;5038309;28;1985;-56
2021/01/13 06:41:45;;;;;;;;;;;;;;;20.98;36.83;99946.25;5021241;28;800;-56
2021/01/13 06:44:10;;;;;;;;;;;;;;;20.35;38.09;99952.72;5038783;28;863;-53
2021/01/13 06:46:36;;;;;;;;;;;;;;;20.28;38.15;99946.06;5038508;28;876;-51
2021/01/13 06:49:10;;;;;;;;;;;;;;;19.66;39.24;99956.75;5039055;28;757;-47
2021/01/13 06:51:36;;;;;;;;;;;;;;;19.39;40.41;99963.22;5038554;28;951;-50
2021/01/13 06:54:01;;;;;;;;;;;;;;;20.45;37.87;99962.69;5038446;28;772;-47
2021/01/13 06:56:27;;;;;;;;;;;;;;;20.85;36.99;99953.56;5020977;28;804;-55
2021/01/13 06:58:56;;;;;;;;;;;;;;;20.37;37.80;99957.97;5020827;28;1917;-55
2021/01/13 07:01:21;;;;;;;;;;;;;;;20.24;37.99;99965.19;5048319;28;829;-53
2021/01/13 07:03:46;;;;;;;;;;;;;;;19.64;39.46;99967.28;5058696;28;823;-52
2021/01/13 07:06:12;;;;;;;;;;;;;;;19.69;39.62;99958.06;5040895;28;1506;-48
2021/01/13 07:08:37;;;;;;;;;;;;;;;20.60;37.50;99955.09;5041033;28;1006;-53
2021/01/13 07:11:03;;;;;;;;;;;;;;;20.54;37.35;99953.59;5038494;28;783;-51
2021/01/13 07:13:29;;;;;;;;;;;;;;;20.33;37.96;99954.22;5038571;28;821;-52
2021/01/13 07:15:58;;;;;;;;;;;;;;;19.88;38.72;99954.31;5038369;28;758;-48
2021/01/13 07:18:23;;;;;;;;;;;;;;;19.42;39.82;99957.06;5052141;28;1140;-56
2021/01/13 07:20:49;;;;;;;;;;;;;;;20.11;38.75;99947.59;5057715;28;1910;-56
2021/01/13 07:23:14;;;;;;;;;;;;;;;20.82;37.24;99952.25;5043436;28;1105;-52
2021/01/13 07:25:46;;;;;;;;;;;;;;;20.53;37.55;99963.84;5038401;28;755;-56
2021/01/13 07:28:15;;;;;;;;;;;;;;;20.38;37.96;99965.09;5038153;28;748;-52
2021/01/13 07:30:41;;;;;;;;;;;;;;;20.00;38.67;99968.34;5038049;28;799;-48
2021/01/13 07:33:12;;;;;;;;;;;;;;;19.46;39.90;99971.03;5038905;28;1006;-49
2021/01/13 07:35:45;;;;;;;;;;;;;;;20.12;38.51;99976.84;5057797;28;878;-52
2021/01/13 07:38:17;;;;;;;;;;;;;;;20.92;36.95;99969.69;5043932;28;1010;-55
2021/01/13 07:40:55;;;;;;;;;;;;;;;20.26;38.32;99981.44;5037751;28;1910;-57
2021/01/13 07:43:39;;;;;;;;;;;;;;;20.21;38.82;99978.84;5037926;28;772;-52
2021/01/13 07:46:04;;;;;;;;;;;;;;;19.60;40.11;99987.50;5036584;28;768;-52
2021/01/13 07:48:30;;;;;;;;;;;;;;;19.31;40.71;99992.31;5031303;28;884;-54
2021/01/13 07:51:04;;;;;;;;;;;;;;;20.16;38.85;99988.88;5057644;28;823;-49
2021/01/13 07:53:30;;;;;;;;;;;;;;;20.79;37.61;99988.81;5041020;28;1017;-50
2021/01/13 07:55:59;;;;;;;;;;;;;;;20.26;38.47;99992.47;5020738;28;721;-54
2021/01/13 07:58:25;;;;;;;;;;;;;;;20.21;38.65;99995.41;5037248;28;976;-50
2021/01/13 08:00:56;;;;;;;;;;;;;;;19.67;39.77;99993.44;5036951;28;1906;-50
2021/01/13 08:03:40;;;;;;;;;;;;;;;19.67;39.84;99996.19;5037788;28;796;-49
2021/01/13 08:06:25;;;;;;;;;;;;;;;20.54;38.05;99992.28;5061119;28;1230;-53
2021/01/13 08:09:02;;;;;;;;;;;;;;;20.52;38.09;99995.34;5064913;28;1165;-49
2021/01/13 08:11:47;;;;;;;;;;;;;;;20.20;38.38;99991.00;5077079;28;859;-52
2021/01/13 08:14:31;;;;;;;;;;;;;;;19.83;39.52;100002.16;5077618;28;799;-54
2021/01/13 08:16:58;;;;;;;;;;;;;;;19.20;40.61;99995.63;5074627;28;1099;-54
2021/01/13 08:19:44;;;;;;;;;;;;;;;19.74;39.76;100004.84;5057176;28;1906;-49
2021/01/13 08:22:20;;;;;;;;;;;;;;;20.60;37.70;99996.53;5050819;28;997;-55
2021/01/13 08:24:48;;;;;;;;;;;;;;;20.22;38.35;99999.78;5036893;28;859;-56
2021/01/13 08:27:14;;;;;;;;;;;;;;;20.28;38.18;99996.56;5036407;28;508;-60
2021/01/13 08:29:40;;;;;;;;;;;;;;;19.69;39.54;100001.38;5050661;28;963;-47
2021/01/13 08:32:06;;;;;;;;;;;;;;;19.69;39.56;100004.94;5054385;28;923;-50
2021/01/13 08:34:44;;;;;;;;;;;;;;;20.51;37.96;100000.09;5054251;28;1202;-49
2021/01/13 08:37:30;;;;;;;;;;;;;;;20.28;38.07;100004.03;5051404;28;1066;-48
2021/01/13 08:39:57;;;;;;;;;;;;;;;20.26;38.40;99998.00;5036425;28;1891;-58
2021/01/13 08:42:23;;;;;;;;;;;;;;;19.71;39.20;99999.13;5002546;28;981;-48
2021/01/13 08:44:49;;;;;;;;;;;;;;;19.26;40.52;99997.16;5051723;28;876;-50
2021/01/13 08:47:15;;;;;;;;;;;;;;;19.93;39.02;99995.56;5038294;28;876;-47
2021/01/13 08:49:40;;;;;;;;;;;;;;;20.66;37.37;99993.31;5055323;28;840;-50
2021/01/13 08:52:15;;;;;;;;;;;;;;;20.33;37.99;99990.91;5053857;28;883;-50
2021/01/13 08:54:41;;;;;;;;;;;;;;;20.20;38.56;99988.25;5055312;28;900;-53
2021/01/13 08:57:07;;;;;;;;;;;;;;;19.75;39.18;99991.84;5055028;28;813;-54
2021/01/13 08:59:34;;;;;;;;;;;;;;;19.32;40.44;99991.22;5055330;28;1969;-52
2021/01/13 09:02:05;;;;;;;;;;;;;;;20.31;38.10;99990.44;5054798;28;868;-48
2021/01/13 09:04:39;;;;;;;;;;;;;;;20.42;37.68;99990.94;5059625;28;952;-51
2021/01/13 09:07:04;;;;;;;;;;;;;;;20.26;38.19;99987.78;5041170;28;893;-50
2021/01/13 09:09:30;;;;;;;;;;;;;;;19.91;38.82;99989.53;5055182;28;872;-53
2021/01/13 09:11:56;;;;;;;;;;;;;;;19.45;40.03;99972.97;5037685;28;837;-46
2021/01/13 09:14:22;;;;;;;;;;;;;;;20.14;38.47;99980.09;5054747;28;844;-47
2021/01/13 09:16:50;;;;;;;;;;;;;;;20.83;37.07;99975.16;5055245;28;935;-48
2021/01/13 09:19:21;;;;;;;;;;;;;;;20.42;37.82;99974.38;5054429;28;1914;-49
2021/01/13 09:21:46;;;;;;;;;;;;;;;20.28;38.30;99977.22;5035022;28;868;-47
2021/01/13 09:24:18;;;;;;;;;;;;;;;19.73;39.30;99978.38;5033791;28;1089;-46
2021/01/13 09:26:50;;;;;;;;;;;;;;;19.13;40.54;99974.81;5055279;28;896;-47
2021/01/13 09:29:15;;;;;;;;;;;;;;;20.28;38.13;99979.19;5054706;28;843;-46
2021/01/13 09:31:40;;;;;;;;;;;;;;;20.65;37.47;99966.81;5054987;28;874;-54
2021/01/13 09:34:06;;;;;;;;;;;;;;;20.27;37.91;99966.50;5055339;28;872;-49
2021/01/13 09:36:50;;;;;;;;;;;;;;;20.14;38.46;99962.72;5036874;28;859;-48
2021/01/13 09:39:16;;;;;;;;;;;;;;;19.52;39.69;99964.28;5051948;28;1977;-48
2021/01/13 09:41:42;;;;;;;;;;;;;;;19.61;39.47;99967.91;5054957;28;817;-47
2021/01/13 09:44:08;;;;;;;;;;;;;;;20.52;37.71;99967.75;5054524;28;844;-50
2021/01/13 09:46:33;;;;;;;;;;;;;;;20.47;37.34;99954.91;5055305;28;858;-47
2021/01/13 09:49:00;;;;;;;;;;;;;;;20.37;37.94;99963.47;5055057;28;907;-51
2021/01/13 09:51:25;;;;;;;;;;;;;;;20.00;38.64;99965.56;5058783;28;987;-48
2021/01/13 09:53:52;;;;;;;;;;;;;;;19.38;39.92;99955.25;5060700;28;970;-55
2021/01/13 09:56:18;;;;;;;;;;;;;;;19.68;39.40;99956.44;5064859;28;865;-46
2021/01/13 09:58:44;;;;;;;;;;;;;;;20.51;37.41;99955.88;5053820;28;1980;-48
2021/01/13 10:01:16;;;;;;;;;;;;;;;20.62;37.03;99955.59;5054916;28;896;-53
2021/01/13 10:03:43;;;;;;;;;;;;;;;20.27;37.94;99958.22;5054846;28;875;-47
2021/01/13 10:06:15;;;;;;;;;;;;;;;20.04;38.37;99952.78;5057503;28;915;-45
2021/01/13 10:08:40;;;;;;;;;;;;;;;19.40;39.66;99948.28;5056075;28;1186;-47
2021/01/13 10:11:07;;;;;;;;;;;;;;;19.58;39.61;99942.91;5065579;28;1161;-46
2021/01/13 10:13:33;;;;;;;;;;;;;;;20.40;37.76;99942.69;5062960;28;972;-57
2021/01/13 10:16:01;;;;;;;;;;;;;;;20.63;37.11;99927.63;5066231;28;1289;-57
2021/01/13 10:18:27;;;;;;;;;;;;;;;20.22;37.98;99928.03;5066870;28;1194;-57
2021/01/13 10:20:56;;;;;;;;;;;;;;;20.14;38.22;99916.59;5067501;28;1918;-47
2021/01/13 10:23:25;;;;;;;;;;;;;;;19.59;39.53;99917.78;5048854;28;1178;-57
2021/01/13 10:25:57;;;;;;;;;;;;;;;19.84;39.05;99926.56;5069174;28;1324;-46
2021/01/13 10:28:22;;;;;;;;;;;;;;;20.60;37.40;99925.53;5041319;28;1250;-47
2021/01/13 10:30:48;;;;;;;;;;;;;;;20.25;37.79;99908.06;5041420;28;831;-48
2021/01/13 10:33:13;;;;;;;;;;;;;;;20.33;37.60;99904.50;5058216;28;1280;-49
2021/01/13 10:35:39;;;;;;;;;;;;;;;19.94;38.58;99897.88;5056671;28;994;-47
2021/01/13 10:38:05;;;;;;;;;;;;;;;19.18;40.46;99905.00;5058265;28;1052;-46
2021/01/13 10:40:30;;;;;;;;;;;;;;;20.35;37.71;99896.72;5057889;28;1972;-56
2021/01/13 10:42:56;;;;;;;;;;;;;;;20.42;37.71;99883.25;5057673;28;829;-54
2021/01/13 10:45:21;;;;;;;;;;;;;;;20.06;38.47;99892.53;5060731;28;913;-46
2021/01/13 10:47:56;;;;;;;;;;;;;;;19.79;38.85;99891.63;5065619;28;1053;-46
2021/01/13 10:50:22;;;;;;;;;;;;;;;19.21;40.00;99887.84;5063130;28;1197;-46
2021/01/13 10:52:48;;;;;;;;;;;;;;;20.15;38.18;99882.38;5064242;28;948;-46
2021/01/13 10:55:16;;;;;;;;;;;;;;;20.67;37.00;99880.88;5048888;28;1247;-48
2021/01/13 10:57:41;;;;;;;;;;;;;;;20.35;37.94;99880.16;5063101;28;923;-49
2021/01/13 11:00:11;;;;;;;;;;;;;;;20.11;38.32;99869.53;5039920;28;1958;-58
2021/01/13 11:02:36;;;;;;;;;;;;;;;19.62;39.17;99877.72;5064300;28;1007;-46
2021/01/13 11:05:02;;;;;;;;;;;;;;;19.43;39.93;99872.41;5064129;28;1292;-49
2021/01/13 11:07:37;;;;;;;;;;;;;;;20.42;37.63;99871.41;5057514;28;876;-49
2021/01/13 11:10:03;;;;;;;;;;;;;;;20.60;37.14;99875.00;5050078;28;815;-50
2021/01/13 11:12:29;;;;;;;;;;;;;;;20.37;37.60;99880.66;5039213;28;947;-56
2021/01/13 11:14:54;;;;;;;;;;;;;;;19.99;38.37;99889.44;5057709;28;852;-47
2021/01/13 11:17:20;;;;;;;;;;;;;;;19.59;39.41;99892.94;5057498;28;980;-56
2021/01/13 11:19:46;;;;;;;;;;;;;;;19.45;39.66;99887.50;5053211;28;1977;-47
2021/01/13 11:22:12;;;;;;;;;;;;;;;19.42;39.85;99890.91;5056583;28;890;-56
2021/01/13 11:24:38;;;;;;;;;;;;;;;19.72;39.31;99884.91;5057379;28;876;-47
2021/01/13 11:27:05;;;;;;;;;;;;;;;19.80;38.76;99882.22;5056982;28;900;-46
2021/01/13 11:29:31;;;;;;;;;;;;;;;19.58;39.40;99898.78;5057291;28;824;-46
2021/01/13 11:31:57;;;;;;;;;;;;;;;19.99;38.57;99894.94;5056643;28;935;-57
2021/01/13 11:34:23;;;;;;;;;;;;;;;20.64;37.12;99896.13;5070325;28;1296;-47
2021/01/13 11:36:50;;;;;;;;;;;;;;;20.20;37.97;99897.16;5066343;28;1236;-45
2021/01/13 11:39:17;;;;;;;;;;;;;;;20.17;38.03;99895.84;5059956;28;1910;-46
2021/01/13 11:42:01;;;;;;;;;;;;;;;19.74;38.93;99896.44;5058025;28;1217;-46
2021/01/13 11:44:37;;;;;;;;;;;;;;;19.42;39.41;99888.16;5061804;28;1217;-46
2021/01/13 11:47:06;;;;;;;;;;;;;;;20.03;38.33;99887.66;5040606;28;1237;-47
2021/01/13 11:49:34;;;;;;;;;;;;;;;20.63;37.12;99891.72;5055033;28;803;-56
2021/01/13 11:52:02;;;;;;;;;;;;;;;20.14;38.08;99889.00;5051143;28;936;-45
2021/01/13 11:54:27;;;;;;;;;;;;;;;20.25;37.88;99892.28;5037694;28;799;-45
2021/01/13 11:56:53;;;;;;;;;;;;;;;19.63;39.08;99901.41;5037016;28;852;-49
2021/01/13 11:59:25;;;;;;;;;;;;;;;19.95;38.64;99891.19;5037715;28;1910;-46
2021/01/13 12:01:51;;;;;;;;;;;;;;;20.72;36.85;99897.31;5051195;28;1444;-46
2021/01/13 12:04:16;;;;;;;;;;;;;;;20.39;37.47;99899.66;5067734;28;1115;-49
2021/01/13 12:06:53;;;;;;;;;;;;;;;20.36;37.55;99901.09;5040632;28;1193;-57
2021/01/13 12:09:18;;;;;;;;;;;;;;;19.72;38.72;99905.03;5068375;28;1066;-51
2021/01/13 12:11:44;;;;;;;;;;;;;;;19.19;40.38;99911.31;5067237;28;1365;-45
2021/01/13 12:14:09;;;;;;;;;;;;;;;20.28;37.99;99908.22;5048045;28;1201;-46
2021/01/13 12:16:35;;;;;;;;;;;;;;;20.57;37.19;99917.09;5067495;28;1181;-57
2021/01/13 12:19:00;;;;;;;;;;;;;;;20.17;37.96;99910.47;5066030;28;1909;-47
2021/01/13 12:21:28;;;;;;;;;;;;;;;20.04;38.16;99914.13;5065983;28;1355;-56
2021/01/13 12:23:53;;;;;;;;;;;;;;;19.37;39.57;99929.63;5063470;28;1159;-45
2021/01/13 12:26:19;;;;;;;;;;;;;;;20.27;37.98;99927.88;5066893;28;1292;-46
2021/01/13 12:28:46;;;;;;;;;;;;;;;20.41;37.66;99934.09;5066717;28;1288;-47
2021/01/13 12:31:12;;;;;;;;;;;;;;;20.39;37.61;99930.84;5064944;28;1233;-46
2021/01/13 12:33:38;;;;;;;;;;;;;;;20.22;37.75;99933.53;5066855;28;1245;-58
2021/01/13 12:36:17;;;;;;;;;;;;;;;19.43;39.43;99933.91;5066422;28;1166;-45
2021/01/13 12:38:46;;;;;;;;;;;;;;;20.11;38.25;99936.56;5061306;28;1269;-52
2021/01/13 12:41:11;;;;;;;;;;;;;;;20.79;36.65;99933.56;5067638;28;1209;-47
2021/01/13 12:43:36;;;;;;;;;;;;;;;21.24;35.86;99923.31;5065392;28;1181;-46
2021/01/13 12:46:02;;;;;;;;;;;;;;;20.81;36.48;99924.94;5066247;28;1189;-46
2021/01/13 12:48:27;;;;;;;;;;;;;;;20.58;37.13;99926.97;5066939;28;1293;-48
2021/01/13 12:50:53;;;;;;;;;;;;;;;19.99;38.40;99930.81;5064652;28;1074;-48
2021/01/13 12:53:18;;;;;;;;;;;;;;;19.37;39.62;99929.63;5063298;28;1343;-47
2021/01/13 12:55:44;;;;;;;;;;;;;;;19.89;38.53;99926.41;5065710;28;1264;-50
2021/01/13 12:58:09;;;;;;;;;;;;;;;20.71;36.93;99916.97;5066490;28;1233;-48
2021/01/13 13:00:36;;;;;;;;;;;;;;;20.35;37.50;99916.84;5064928;28;1902;-54
2021/01/13 13:03:02;;;;;;;;;;;;;;;20.33;37.77;99919.13;5065429;28;1189;-49
2021/01/13 13:05:27;;;;;;;;;;;;;;;19.75;38.58;99926.44;5058615;28;1131;-56
2021/01/13 13:07:52;;;;;;;;;;;;;;;19.40;39.66;99934.50;5054580;28;954;-47
2021/01/13 13:10:18;;;;;;;;;;;;;;;20.40;37.40;99929.72;5058322;28;1288;-49